Time;durP1;ratioP1;P1;durP2;ratioP2;P2;SDS_P1;SDS_P2;PMS_P1;PMS_P2;Temp;Humidity;BMP_temperature;BMP_pressure;BME280_temperature;BME280_humidity;BME280_pressure;Samples;Min_cycle;Max_cycle;Signal;HPM_P1;HPM_P2
2021/03/28 00:00:47;;;;;;;21.13;8.45;;;;;;;;;;5117768;28;20228;-54
2021/03/28 00:03:18;;;;;;;10.98;5.88;;;;;;;;;;5137124;28;20192;-57
2021/03/28 00:05:46;;;;;;;22.75;5.95;;;;;;;;;;5127867;28;20197;-53
2021/03/28 00:08:51;;;;;;;18.38;7.15;;;;;;;;;;5116465;28;20194;-51
2021/03/28 00:11:20;;;;;;;13.65;5.95;;;;;;;;;;5117004;28;20213;-54
2021/03/28 00:13:49;;;;;;;21.55;6.40;;;;;;;;;;5116895;28;20231;-51
2021/03/28 00:16:29;;;;;;;15.68;7.13;;;;;;;;;;5117046;28;20193;-54
2021/03/28 00:19:01;;;;;;;14.95;6.45;;;;;;;;;;5116655;28;20233;-50
2021/03/28 00:21:30;;;;;;;15.57;9.23;;;;;;;;;;5116649;28;20229;-46
2021/03/28 00:24:00;;;;;;;21.25;6.35;;;;;;;;;;5115740;28;20193;-52
2021/03/28 00:26:30;;;;;;;12.13;6.55;;;;;;;;;;5114592;28;20217;-51
2021/03/28 00:29:06;;;;;;;52.67;33.17;;;;;;;;;;5116755;28;20201;-53
2021/03/28 00:31:51;;;;;;;37.85;23.00;;;;;;;;;;5116448;28;20200;-54
2021/03/28 00:34:22;;;;;;;16.98;4.55;;;;;;;;;;5114174;28;20266;-54
2021/03/28 00:36:53;;;;;;;11.55;2.97;;;;;;;;;;5116552;28;20306;-56
2021/03/28 00:39:35;;;;;;;11.93;3.72;;;;;;;;;;5116656;28;20213;-57
2021/03/28 00:42:04;;;;;;;13.82;4.20;;;;;;;;;;5114059;28;20244;-54
2021/03/28 00:47:23;;;;;;;11.68;4.68;;;;;;;;;;5101778;28;20229;-53
2021/03/28 00:49:59;;;;;;;8.57;4.03;;;;;;;;;;5116578;28;20205;-59
2021/03/28 00:52:51;;;;;;;10.07;3.40;;;;;;;;;;5116250;28;20201;-52
2021/03/28 00:55:22;;;;;;;9.68;3.92;;;;;;;;;;5114452;28;20243;-54
2021/03/28 00:58:03;;;;;;;11.63;3.65;;;;;;;;;;5116122;28;20205;-51
2021/03/28 01:01:06;;;;;;;15.20;3.35;;;;;;;;;;5116445;28;20209;-52
2021/03/28 01:03:38;;;;;;;16.63;6.65;;;;;;;;;;5117121;28;20222;-54
2021/03/28 01:06:14;;;;;;;8.20;3.17;;;;;;;;;;5116075;28;20209;-53
2021/03/28 01:08:54;;;;;;;6.10;3.55;;;;;;;;;;5116117;28;20217;-56
2021/03/28 01:11:34;;;;;;;15.93;5.43;;;;;;;;;;5115844;28;20203;-55
2021/03/28 01:14:22;;;;;;;12.30;3.92;;;;;;;;;;5115862;28;20219;-51
2021/03/28 01:17:04;;;;;;;13.23;2.85;;;;;;;;;;5089730;28;20205;-55
2021/03/28 01:19:40;;;;;;;8.63;2.95;;;;;;;;;;5116101;28;20208;-55
2021/03/28 01:22:09;;;;;;;9.65;2.92;;;;;;;;;;5115335;28;20244;-56
2021/03/28 01:24:39;;;;;;;12.05;4.65;;;;;;;;;;5132827;28;20193;-54
2021/03/28 01:27:12;;;;;;;15.50;5.65;;;;;;;;;;5136703;28;20183;-52
2021/03/28 01:29:54;;;;;;;12.45;6.45;;;;;;;;;;5122952;28;20197;-51
2021/03/28 01:32:24;;;;;;;12.88;3.90;;;;;;;;;;5116856;28;20201;-51
2021/03/28 01:34:54;;;;;;;11.98;3.33;;;;;;;;;;5116559;28;20296;-54
2021/03/28 01:37:24;;;;;;;12.63;3.30;;;;;;;;;;5115643;28;20215;-51
2021/03/28 01:39:58;;;;;;;19.88;7.57;;;;;;;;;;5115871;28;20211;-55
2021/03/28 01:42:33;;;;;;;15.40;5.75;;;;;;;;;;5116138;28;20197;-56
2021/03/28 01:45:06;;;;;;;9.98;4.07;;;;;;;;;;5115479;28;20266;-58
2021/03/28 01:47:39;;;;;;;12.38;4.30;;;;;;;;;;5115402;28;20189;-53
2021/03/28 01:50:37;;;;;;;;;;;;;;;;;;;;;
2021/03/28 01:53:09;;;;;;;10.30;5.03;;;;;;;;;;5114481;28;20254;-57
2021/03/28 01:55:41;;;;;;;18.33;7.95;;;;;;;;;;5116247;28;20219;-44
2021/03/28 01:58:14;;;;;;;7.90;2.85;;;;;;;;;;5115102;28;20209;-55
2021/03/28 02:01:13;;;;;;;9.30;3.55;;;;;;;;;;5115438;28;20244;-51
2021/03/28 02:03:48;;;;;;;8.48;4.97;;;;;;;;;;5032388;28;20196;-53
2021/03/28 02:06:31;;;;;;;12.90;3.30;;;;;;;;;;5082132;28;20221;-62
2021/03/28 02:09:00;;;;;;;13.50;4.10;;;;;;;;;;5095074;28;20205;-54
2021/03/28 02:11:40;;;;;;;13.18;5.10;;;;;;;;;;5096373;28;20199;-57
2021/03/28 02:14:36;;;;;;;14.43;4.43;;;;;;;;;;5104493;28;20272;-57
2021/03/28 02:17:06;;;;;;;11.70;3.35;;;;;;;;;;5115532;28;20220;-52
2021/03/28 02:19:36;;;;;;;12.77;3.28;;;;;;;;;;5115611;28;20198;-54
2021/03/28 02:22:12;;;;;;;9.13;3.53;;;;;;;;;;5114792;28;20233;-60
2021/03/28 02:24:57;;;;;;;13.27;7.22;;;;;;;;;;5094781;28;20210;-54
2021/03/28 02:27:28;;;;;;;11.10;5.07;;;;;;;;;;5098396;28;20273;-55
2021/03/28 02:30:00;;;;;;;18.40;6.97;;;;;;;;;;5119149;28;20192;-53
2021/03/28 02:32:44;;;;;;;13.32;6.65;;;;;;;;;;5118969;28;20209;-47
2021/03/28 02:35:15;;;;;;;12.02;3.88;;;;;;;;;;5118033;28;20258;-52
2021/03/28 02:37:50;;;;;;;8.95;3.88;;;;;;;;;;5118506;28;20231;-59
2021/03/28 02:40:20;;;;;;;10.00;5.20;;;;;;;;;;5118323;28;20193;-53
2021/03/28 02:42:57;;;;;;;13.60;5.40;;;;;;;;;;5118447;28;20197;-47
2021/03/28 02:45:26;;;;;;;7.97;3.72;;;;;;;;;;5118178;28;20239;-60
2021/03/28 02:48:06;;;;;;;8.73;3.20;;;;;;;;;;5118272;28;20185;-55
2021/03/28 02:50:54;;;;;;;6.10;2.97;;;;;;;;;;5113087;28;20185;-47
2021/03/28 02:53:29;;;;;;;11.43;3.05;;;;;;;;;;5085505;28;20224;-56
2021/03/28 02:56:16;;;;;;;7.68;2.50;;;;;;;;;;5118354;28;20199;-51
2021/03/28 02:58:59;;;;;;;8.00;2.70;;;;;;;;;;5098500;28;20229;-54
2021/03/28 03:01:47;;;;;;;86.82;53.38;;;;;;;;;;5098351;28;20217;-53
2021/03/28 03:04:26;;;;;;;104.85;64.55;;;;;;;;;;5116824;28;20549;-58
2021/03/28 03:07:03;;;;;;;80.53;50.75;;;;;;;;;;5118339;28;20220;-57
2021/03/28 03:09:55;;;;;;;49.70;30.85;;;;;;;;;;5118426;28;20184;-53
2021/03/28 03:12:33;;;;;;;25.45;14.77;;;;;;;;;;5116616;28;20244;-57
2021/03/28 03:15:09;;;;;;;37.10;19.90;;;;;;;;;;5118574;28;20243;-56
2021/03/28 03:17:54;;;;;;;16.55;6.45;;;;;;;;;;5118754;28;20230;-55
2021/03/28 03:20:35;;;;;;;6.78;2.53;;;;;;;;;;5118199;28;20197;-52
2021/03/28 03:23:18;;;;;;;9.40;2.80;;;;;;;;;;5118081;28;20193;-57
2021/03/28 03:26:04;;;;;;;10.38;2.95;;;;;;;;;;5117901;28;20192;-48
2021/03/28 03:31:52;;;;;;;12.73;3.50;;;;;;;;;;5112267;28;20160;-51
2021/03/28 03:34:34;;;;;;;8.23;2.80;;;;;;;;;;5117753;28;20204;-53
2021/03/28 03:37:13;;;;;;;8.00;2.70;;;;;;;;;;5116261;28;20197;-55
2021/03/28 03:39:54;;;;;;;5.65;2.15;;;;;;;;;;5117127;28;20217;-54
2021/03/28 03:45:33;;;;;;;9.40;2.80;;;;;;;;;;5114423;28;20173;-55
2021/03/28 03:48:04;;;;;;;5.90;2.17;;;;;;;;;;5117330;28;20216;-56
2021/03/28 03:50:46;;;;;;;11.13;3.03;;;;;;;;;;5117141;28;20276;-56
2021/03/28 03:53:22;;;;;;;7.25;2.42;;;;;;;;;;5117071;28;20197;-54
2021/03/28 03:55:59;;;;;;;7.50;2.20;;;;;;;;;;5117405;28;20193;-57
2021/03/28 03:58:29;;;;;;;4.88;2.42;;;;;;;;;;5116801;28;20189;-55
2021/03/28 04:01:01;;;;;;;8.18;2.80;;;;;;;;;;5115628;28;20209;-52
2021/03/28 04:03:48;;;;;;;8.55;2.40;;;;;;;;;;5117502;28;20198;-59
2021/03/28 04:06:23;;;;;;;6.80;2.10;;;;;;;;;;5116829;28;20193;-54
2021/03/28 04:08:59;;;;;;;10.98;2.70;;;;;;;;;;5116560;28;20189;-57
2021/03/28 04:11:46;;;;;;;7.95;2.53;;;;;;;;;;5115617;28;20193;-54
2021/03/28 04:14:17;;;;;;;10.00;2.47;;;;;;;;;;5114561;28;20206;-56
2021/03/28 04:16:52;;;;;;;4.78;1.80;;;;;;;;;;5111945;28;20201;-55
2021/03/28 04:19:30;;;;;;;10.32;3.08;;;;;;;;;;5116463;28;20177;-51
2021/03/28 04:22:23;;;;;;;5.80;2.25;;;;;;;;;;5115320;28;20221;-58
2021/03/28 04:24:56;;;;;;;5.18;2.40;;;;;;;;;;5108100;27;20208;-54
2021/03/28 04:27:34;;;;;;;9.73;2.58;;;;;;;;;;5116168;28;20201;-57
2021/03/28 04:30:01;;;;;;;9.68;2.75;;;;;;;;;;5116363;27;20213;-53
2021/03/28 04:32:50;;;;;;;10.73;2.65;;;;;;;;;;5116007;28;20194;-60
2021/03/28 04:35:21;;;;;;;7.22;3.10;;;;;;;;;;5106462;28;20201;-54
2021/03/28 04:37:58;;;;;;;6.10;2.70;;;;;;;;;;5116221;28;20228;-52
2021/03/28 04:40:49;;;;;;;7.57;2.58;;;;;;;;;;5116187;28;20284;-48
2021/03/28 04:43:31;;;;;;;8.10;2.83;;;;;;;;;;5041626;28;20196;-54
2021/03/28 04:46:16;;;;;;;7.93;3.00;;;;;;;;;;5115554;28;20205;-51
2021/03/28 04:48:52;;;;;;;8.23;2.20;;;;;;;;;;5108418;28;20555;-49
2021/03/28 04:51:38;;;;;;;7.03;1.85;;;;;;;;;;5115595;28;20209;-52
2021/03/28 04:54:25;;;;;;;5.07;2.53;;;;;;;;;;5115519;28;20201;-57
2021/03/28 04:57:06;;;;;;;5.95;2.13;;;;;;;;;;5075028;28;20197;-52
2021/03/28 04:59:49;;;;;;;7.70;2.10;;;;;;;;;;5108422;28;20209;-53
2021/03/28 05:02:31;;;;;;;8.07;1.70;;;;;;;;;;5114527;28;20213;-55
2021/03/28 05:05:12;;;;;;;12.07;3.70;;;;;;;;;;5116483;28;20314;-54
2021/03/28 05:07:57;;;;;;;6.07;2.10;;;;;;;;;;5116113;28;20239;-49
2021/03/28 05:10:39;;;;;;;9.98;2.65;;;;;;;;;;5116352;28;20205;-55
2021/03/28 05:13:49;;;;;;;5.47;2.15;;;;;;;;;;5116236;28;20237;-52
2021/03/28 05:16:30;;;;;;;9.50;2.70;;;;;;;;;;5116312;28;20241;-50
2021/03/28 05:19:14;;;;;;;7.68;2.30;;;;;;;;;;5115729;28;20220;-53
2021/03/28 05:21:59;;;;;;;6.38;2.58;;;;;;;;;;5116150;28;20228;-51
2021/03/28 05:24:45;;;;;;;5.05;2.35;;;;;;;;;;5115878;28;20205;-54
2021/03/28 05:27:34;;;;;;;9.13;3.10;;;;;;;;;;5116054;28;20276;-59
2021/03/28 05:30:11;;;;;;;7.95;2.40;;;;;;;;;;5116018;28;20209;-56
2021/03/28 05:32:51;;;;;;;9.77;2.45;;;;;;;;;;5116010;28;20358;-56
2021/03/28 05:38:37;;;;;;;7.20;2.65;;;;;;;;;;5115893;28;20311;-56
2021/03/28 05:41:20;;;;;;;4.80;2.10;;;;;;;;;;5115383;28;20236;-56
2021/03/28 05:44:09;;;;;;;6.00;2.90;;;;;;;;;;5115446;28;20199;-61
2021/03/28 05:46:40;;;;;;;7.65;2.28;;;;;;;;;;5115507;28;20221;-54
2021/03/28 05:49:21;;;;;;;7.45;1.90;;;;;;;;;;5115791;28;20193;-50
2021/03/28 05:51:55;;;;;;;8.70;2.25;;;;;;;;;;5098653;28;20248;-49
2021/03/28 05:54:40;;;;;;;6.30;2.10;;;;;;;;;;5115413;28;20216;-54
2021/03/28 05:57:33;;;;;;;10.68;2.83;;;;;;;;;;5115261;28;20289;-58
2021/03/28 06:00:06;;;;;;;8.85;2.47;;;;;;;;;;5115024;28;20272;-59
2021/03/28 06:02:39;;;;;;;12.73;3.70;;;;;;;;;;5118710;28;20243;-52
2021/03/28 06:05:27;;;;;;;5.65;2.35;;;;;;;;;;5119174;28;20193;-54
2021/03/28 06:11:19;;;;;;;8.52;2.53;;;;;;;;;;5099628;28;20338;-52
2021/03/28 06:14:00;;;;;;;11.15;2.60;;;;;;;;;;5093241;28;20222;-56
2021/03/28 06:16:39;;;;;;;5.90;2.80;;;;;;;;;;5093310;28;20181;-48
2021/03/28 06:19:21;;;;;;;8.55;2.78;;;;;;;;;;5119623;28;20197;-53
2021/03/28 06:24:59;;;;;;;8.05;2.35;;;;;;;;;;5119293;28;20192;-57
2021/03/28 06:27:47;;;;;;;6.10;2.30;;;;;;;;;;5119151;28;20215;-54
2021/03/28 06:30:29;;;;;;;9.02;1.95;;;;;;;;;;5036473;28;20200;-48
2021/03/28 06:33:17;;;;;;;7.97;2.10;;;;;;;;;;5117111;28;20243;-53
2021/03/28 06:36:06;;;;;;;4.57;2.03;;;;;;;;;;5118865;28;20201;-56
2021/03/28 06:38:52;;;;;;;5.90;2.05;;;;;;;;;;5100088;28;20214;-58
2021/03/28 06:41:30;;;;;;;5.32;1.75;;;;;;;;;;5099595;28;20218;-54
2021/03/28 06:44:15;;;;;;;7.70;2.13;;;;;;;;;;5099153;28;20209;-52
2021/03/28 06:47:03;;;;;;;7.25;2.70;;;;;;;;;;5114876;28;20200;-54
2021/03/28 06:49:50;;;;;;;8.65;2.00;;;;;;;;;;5118732;28;20209;-50
2021/03/28 06:52:24;;;;;;;5.13;2.13;;;;;;;;;;5084800;28;20197;-53
2021/03/28 06:55:07;;;;;;;4.57;1.92;;;;;;;;;;5118627;28;20415;-61
2021/03/28 06:58:03;;;;;;;8.57;2.47;;;;;;;;;;5119005;28;20189;-54
2021/03/28 07:00:43;;;;;;;9.50;3.03;;;;;;;;;;5118454;28;20216;-59
2021/03/28 07:03:24;;;;;;;8.25;2.60;;;;;;;;;;5118800;28;20423;-46
2021/03/28 07:06:02;;;;;;;7.80;2.50;;;;;;;;;;5118112;28;20204;-55
2021/03/28 07:08:51;;;;;;;14.05;2.53;;;;;;;;;;5118170;28;20212;-50
2021/03/28 07:11:34;;;;;;;6.20;2.58;;;;;;;;;;5117959;28;20200;-56
2021/03/28 07:14:35;;;;;;;6.60;2.10;;;;;;;;;;5117164;28;20210;-51
2021/03/28 07:17:24;;;;;;;6.93;3.05;;;;;;;;;;5117903;28;20451;-56
2021/03/28 07:20:08;;;;;;;10.45;2.85;;;;;;;;;;5118124;28;20208;-58
2021/03/28 07:25:57;;;;;;;7.15;2.17;;;;;;;;;;5118511;28;20180;-57
2021/03/28 07:28:55;;;;;;;5.50;2.10;;;;;;;;;;5117565;28;20181;-59
2021/03/28 07:31:40;;;;;;;13.40;2.90;;;;;;;;;;5117283;28;20459;-56
2021/03/28 07:34:20;;;;;;;7.25;1.90;;;;;;;;;;5116570;28;20781;-50
2021/03/28 07:37:17;;;;;;;7.90;2.20;;;;;;;;;;5117443;28;20198;-57
2021/03/28 07:39:58;;;;;;;7.00;1.83;;;;;;;;;;5050406;28;20465;-58
2021/03/28 07:42:49;;;;;;;6.00;2.33;;;;;;;;;;5100395;28;20493;-59
2021/03/28 07:45:36;;;;;;;9.37;2.23;;;;;;;;;;5116724;28;20222;-54
2021/03/28 07:48:27;;;;;;;5.93;2.10;;;;;;;;;;5104763;28;20450;-52
2021/03/28 07:51:15;;;;;;;6.73;2.43;;;;;;;;;;5117036;28;20192;-59
2021/03/28 07:54:08;;;;;;;7.80;2.20;;;;;;;;;;5116793;28;20527;-50
2021/03/28 07:56:46;;;;;;;6.40;1.80;;;;;;;;;;5112927;28;20468;-52
2021/03/28 07:59:19;;;;;;;7.83;2.20;;;;;;;;;;5095992;28;20456;-57
2021/03/28 08:01:52;;;;;;;6.93;2.70;;;;;;;;;;5098783;28;20513;-56
2021/03/28 08:07:34;;;;;;;14.00;2.37;;;;;;;;;;5086916;28;20429;-57
2021/03/28 08:10:18;;;;;;;8.10;2.40;;;;;;;;;;5108891;28;20444;-58
2021/03/28 08:13:15;;;;;;;7.70;2.37;;;;;;;;;;5098891;28;20583;-50
2021/03/28 08:15:52;;;;;;;9.90;2.43;;;;;;;;;;5114827;28;20466;-57
2021/03/28 08:18:26;;;;;;;8.60;2.47;;;;;;;;;;5117044;28;20463;-60
2021/03/28 08:21:01;;;;;;;6.20;2.80;;;;;;;;;;5116012;28;20482;-59
2021/03/28 08:23:52;;;;;;;7.30;2.13;;;;;;;;;;5115939;28;20439;-51
2021/03/28 08:26:40;;;;;;;11.33;3.30;;;;;;;;;;5103167;28;20447;-59
2021/03/28 08:29:18;;;;;;;5.53;2.17;;;;;;;;;;5115988;28;20482;-56
2021/03/28 08:31:59;;;;;;;11.47;2.30;;;;;;;;;;5114647;28;20451;-56
2021/03/28 08:34:47;;;;;;;12.63;2.33;;;;;;;;;;5115905;28;20518;-58
2021/03/28 08:37:36;;;;;;;7.20;2.90;;;;;;;;;;5120230;28;20697;-56
2021/03/28 08:40:17;;;;;;;5.47;2.83;;;;;;;;;;5114735;28;20984;-55
2021/03/28 08:43:18;;;;;;;6.97;2.87;;;;;;;;;;5114406;28;20495;-52
2021/03/28 08:46:19;;;;;;;6.37;1.70;;;;;;;;;;5116803;28;20459;-50
2021/03/28 08:48:49;;;;;;;5.33;2.07;;;;;;;;;;5020952;28;20458;-62
2021/03/28 08:51:45;;;;;;;7.03;2.30;;;;;;;;;;5018606;28;20527;-57
2021/03/28 08:54:14;;;;;;;6.83;2.57;;;;;;;;;;5037925;28;20435;-54
2021/03/28 08:56:56;;;;;;;7.13;2.07;;;;;;;;;;5115478;28;20436;-52
2021/03/28 08:59:52;;;;;;;11.37;2.53;;;;;;;;;;5114818;28;20458;-58
2021/03/28 09:02:33;;;;;;;9.90;2.60;;;;;;;;;;5111878;28;20543;-57
2021/03/28 09:11:07;;;;;;;6.80;2.70;;;;;;;;;;4372678;26;20465;-56
2021/03/28 09:13:48;;;;;;;11.40;3.27;;;;;;;;;;5094467;28;20516;-57
2021/03/28 09:19:41;;;;;;;4.70;2.37;;;;;;;;;;5094511;28;20702;-56
2021/03/28 09:25:15;;;;;;;8.07;2.47;;;;;;;;;;5088792;28;20466;-55
2021/03/28 09:27:45;;;;;;;4.97;2.40;;;;;;;;;;5114037;28;20726;-58
2021/03/28 09:30:21;;;;;;;6.63;2.50;;;;;;;;;;5114031;28;20474;-56
2021/03/28 09:32:56;;;;;;;5.97;1.90;;;;;;;;;;5102566;28;20448;-52
2021/03/28 09:38:37;;;;;;;7.73;2.20;;;;;;;;;;5094948;28;20415;-59
2021/03/28 09:41:09;;;;;;;8.30;2.30;;;;;;;;;;5112860;28;20486;-55
2021/03/28 09:43:43;;;;;;;6.60;2.50;;;;;;;;;;5111086;28;20661;-60
2021/03/28 09:46:20;;;;;;;5.27;2.27;;;;;;;;;;5102652;28;20452;-60
2021/03/28 09:49:09;;;;;;;6.27;1.90;;;;;;;;;;5107311;28;20443;-53
2021/03/28 09:51:56;;;;;;;10.27;3.13;;;;;;;;;;5101044;28;20447;-55
2021/03/28 09:54:28;;;;;;;9.80;2.63;;;;;;;;;;5112263;28;20455;-53
2021/03/28 09:57:23;;;;;;;7.60;2.40;;;;;;;;;;5097079;28;20614;-59
2021/03/28 10:00:13;;;;;;;6.40;2.17;;;;;;;;;;5095925;28;20510;-56
2021/03/28 10:02:44;;;;;;;7.43;2.83;;;;;;;;;;5135535;28;20524;-53
2021/03/28 10:05:45;;;;;;;10.47;2.70;;;;;;;;;;5136299;28;20480;-57
2021/03/28 10:08:14;;;;;;;10.00;2.30;;;;;;;;;;5131882;28;20493;-57
2021/03/28 10:10:47;;;;;;;8.50;2.47;;;;;;;;;;5134346;28;20449;-58
2021/03/28 10:13:30;;;;;;;7.33;2.03;;;;;;;;;;5133410;28;20536;-57
2021/03/28 10:16:00;;;;;;;6.40;2.03;;;;;;;;;;5134172;28;20509;-58
2021/03/28 10:18:44;;;;;;;6.70;2.80;;;;;;;;;;5142892;28;20430;-49
2021/03/28 10:21:30;;;;;;;11.50;3.07;;;;;;;;;;5126166;28;20498;-53
2021/03/28 10:24:05;;;;;;;5.53;1.90;;;;;;;;;;5130907;28;20434;-59
2021/03/28 10:26:59;;;;;;;8.90;2.60;;;;;;;;;;5129671;28;20532;-56
2021/03/28 10:29:43;;;;;;;5.57;1.90;;;;;;;;;;5131800;28;20514;-56
2021/03/28 10:32:29;;;;;;;4.63;1.40;;;;;;;;;;5134461;28;20460;-53
2021/03/28 10:35:04;;;;;;;6.63;2.10;;;;;;;;;;5131623;28;20481;-54
2021/03/28 10:37:36;;;;;;;4.60;1.47;;;;;;;;;;5134152;28;20630;-52
2021/03/28 10:43:21;;;;;;;8.00;1.70;;;;;;;;;;5130525;28;20503;-53
2021/03/28 10:46:04;;;;;;;10.00;1.60;;;;;;;;;;5134447;28;20457;-58
2021/03/28 10:49:01;;;;;;;5.50;2.07;;;;;;;;;;5117790;28;20454;-53
2021/03/28 10:52:15;;;;;;;8.70;2.10;;;;;;;;;;5136907;28;20484;-52
2021/03/28 10:55:06;;;;;;;6.77;1.27;;;;;;;;;;5135995;28;20442;-56
2021/03/28 10:58:15;;;;;;;5.80;1.63;;;;;;;;;;5127726;28;20543;-58
2021/03/28 11:00:57;;;;;;;7.30;2.37;;;;;;;;;;5135656;28;20454;-58
2021/03/28 11:03:43;;;;;;;4.60;1.50;;;;;;;;;;5138135;28;20474;-58
2021/03/28 11:06:31;;;;;;;8.30;2.80;;;;;;;;;;5137166;28;20484;-54
2021/03/28 11:09:08;;;;;;;6.80;2.00;;;;;;;;;;5137199;28;20475;-55
2021/03/28 11:11:57;;;;;;;5.83;1.70;;;;;;;;;;5137295;28;20447;-55
2021/03/28 11:14:44;;;;;;;7.23;1.80;;;;;;;;;;5138546;28;20446;-54
2021/03/28 11:17:37;;;;;;;7.87;1.73;;;;;;;;;;5124026;28;20462;-54
2021/03/28 11:20:23;;;;;;;3.80;1.77;;;;;;;;;;5124013;28;20511;-53
2021/03/28 11:22:59;;;;;;;6.23;1.73;;;;;;;;;;5126066;28;20519;-59
2021/03/28 11:25:32;;;;;;;5.77;1.60;;;;;;;;;;5137666;28;20454;-60
2021/03/28 11:28:18;;;;;;;5.00;1.37;;;;;;;;;;5133131;27;20466;-54
2021/03/28 11:31:11;;;;;;;5.30;1.20;;;;;;;;;;5128082;28;20583;-57
2021/03/28 11:34:00;;;;;;;4.83;1.50;;;;;;;;;;5131790;28;20458;-49
2021/03/28 11:36:27;;;;;;;4.67;1.43;;;;;;;;;;5137277;28;20464;-56
2021/03/28 11:39:16;;;;;;;5.70;1.53;;;;;;;;;;5136310;28;20450;-55
2021/03/28 11:41:46;;;;;;;6.80;2.10;;;;;;;;;;5136330;28;20736;-56
2021/03/28 11:44:33;;;;;;;7.20;2.03;;;;;;;;;;5137202;27;20454;-53
2021/03/28 11:47:21;;;;;;;7.17;2.37;;;;;;;;;;5128443;28;20459;-59
2021/03/28 11:50:14;;;;;;;8.27;1.87;;;;;;;;;;5134035;27;20461;-54
2021/03/28 11:52:57;;;;;;;4.90;1.50;;;;;;;;;;5135707;28;20442;-56
2021/03/28 11:59:01;;;;;;;7.03;1.80;;;;;;;;;;5116808;28;20709;-57
2021/03/28 12:01:53;;;;;;;8.63;3.70;;;;;;;;;;5115011;28;20490;-56
2021/03/28 12:04:24;;;;;;;9.13;2.40;;;;;;;;;;5135990;28;20583;-55
2021/03/28 12:06:55;;;;;;;4.33;1.90;;;;;;;;;;5134501;28;20462;-60
2021/03/28 12:09:58;;;;;;;7.83;2.50;;;;;;;;;;5129221;27;20533;-53
2021/03/28 12:12:29;;;;;;;14.17;3.47;;;;;;;;;;5130107;28;20511;-55
2021/03/28 12:15:31;;;;;;;5.53;1.93;;;;;;;;;;5127835;28;20454;-61
2021/03/28 12:18:20;;;;;;;5.70;1.73;;;;;;;;;;5133273;28;20445;-55
2021/03/28 12:20:49;;;;;;;5.83;2.07;;;;;;;;;;5134460;28;20505;-56
2021/03/28 12:23:21;;;;;;;12.23;2.40;;;;;;;;;;5136266;27;20555;-57
2021/03/28 12:26:03;;;;;;;5.83;1.87;;;;;;;;;;5135839;28;20434;-58
2021/03/28 12:31:46;;;;;;;14.23;2.10;;;;;;;;;;5135852;28;20487;-59
2021/03/28 12:34:34;;;;;;;5.57;2.40;;;;;;;;;;5110356;28;20454;-56
2021/03/28 12:37:31;;;;;;;7.63;2.10;;;;;;;;;;5137647;27;20492;-56
2021/03/28 12:40:03;;;;;;;6.53;1.90;;;;;;;;;;5121843;28;20489;-51
2021/03/28 12:42:46;;;;;;;8.97;2.17;;;;;;;;;;5134762;28;20494;-57
2021/03/28 12:45:31;;;;;;;5.63;1.93;;;;;;;;;;5131379;28;20690;-54
2021/03/28 12:48:04;;;;;;;5.10;1.87;;;;;;;;;;5133142;28;20481;-57
2021/03/28 12:50:34;;;;;;;6.77;2.87;;;;;;;;;;5132478;28;20489;-57
2021/03/28 12:53:05;;;;;;;5.60;2.43;;;;;;;;;;5134076;28;20442;-59
2021/03/28 12:55:56;;;;;;;8.93;2.40;;;;;;;;;;5134121;28;20462;-57
2021/03/28 12:58:25;;;;;;;7.63;1.70;;;;;;;;;;5127384;28;20482;-58
2021/03/28 13:00:59;;;;;;;7.43;2.97;;;;;;;;;;5129849;28;20514;-53
2021/03/28 13:03:43;;;;;;;4.87;2.00;;;;;;;;;;5129968;28;20457;-58
2021/03/28 13:06:17;;;;;;;9.43;3.00;;;;;;;;;;5128664;28;20513;-53
2021/03/28 13:08:47;;;;;;;11.47;2.27;;;;;;;;;;5125002;28;20454;-53
2021/03/28 13:11:15;;;;;;;8.80;2.70;;;;;;;;;;5132705;28;20473;-52
2021/03/28 13:13:46;;;;;;;7.13;2.43;;;;;;;;;;5126601;28;20674;-60
2021/03/28 13:16:30;;;;;;;4.97;1.63;;;;;;;;;;5127791;28;20491;-57
2021/03/28 13:18:59;;;;;;;6.70;2.23;;;;;;;;;;5127265;27;20470;-58
2021/03/28 13:21:27;;;;;;;5.37;1.53;;;;;;;;;;5143549;27;20497;-54
2021/03/28 13:24:02;;;;;;;5.93;1.73;;;;;;;;;;5137938;27;20466;-59
2021/03/28 13:26:32;;;;;;;6.33;1.80;;;;;;;;;;5125925;28;20546;-56
2021/03/28 13:29:35;;;;;;;7.40;2.60;;;;;;;;;;5129428;28;20524;-60
2021/03/28 13:32:04;;;;;;;6.97;2.07;;;;;;;;;;5130059;28;20489;-56
2021/03/28 13:34:34;;;;;;;5.80;1.77;;;;;;;;;;5130953;28;21016;-56
2021/03/28 13:37:18;;;;;;;6.80;2.07;;;;;;;;;;5132745;28;20538;-60
2021/03/28 13:40:05;;;;;;;5.87;1.93;;;;;;;;;;5124877;28;20506;-51
2021/03/28 13:42:43;;;;;;;8.43;1.90;;;;;;;;;;5129973;28;20469;-54
2021/03/28 13:45:36;;;;;;;7.17;2.53;;;;;;;;;;5146948;27;20438;-54
2021/03/28 13:48:32;;;;;;;9.23;2.17;;;;;;;;;;5134086;28;20500;-57
2021/03/28 13:51:25;;;;;;;5.80;2.20;;;;;;;;;;5129664;28;20451;-56
2021/03/28 13:56:51;;;;;;;6.33;1.97;;;;;;;;;;5126662;28;20490;-53
2021/03/28 13:59:20;;;;;;;5.53;2.23;;;;;;;;;;5132979;28;20474;-51
2021/03/28 14:01:50;;;;;;;6.73;2.10;;;;;;;;;;5142429;28;20548;-52
2021/03/28 14:04:24;;;;;;;6.47;1.87;;;;;;;;;;5141756;28;20481;-53
2021/03/28 14:07:05;;;;;;;5.43;1.80;;;;;;;;;;5125347;28;20450;-51
2021/03/28 14:09:34;;;;;;;10.20;2.40;;;;;;;;;;5132577;28;20454;-60
2021/03/28 14:12:20;;;;;;;6.00;2.13;;;;;;;;;;5133385;28;20480;-56
2021/03/28 14:14:47;;;;;;;6.53;2.07;;;;;;;;;;5131107;28;20476;-51
2021/03/28 14:17:19;;;;;;;5.43;2.03;;;;;;;;;;5111378;28;20455;-56
2021/03/28 14:20:07;;;;;;;13.73;3.27;;;;;;;;;;5112803;28;20466;-58
2021/03/28 14:22:42;;;;;;;4.60;1.70;;;;;;;;;;5127934;28;20477;-55
2021/03/28 14:25:14;;;;;;;6.20;2.20;;;;;;;;;;5140653;27;20456;-53
2021/03/28 14:27:43;;;;;;;6.37;1.97;;;;;;;;;;5133080;28;20515;-53
2021/03/28 14:30:16;;;;;;;5.10;1.87;;;;;;;;;;5136261;28;20473;-59
2021/03/28 14:32:44;;;;;;;10.30;2.33;;;;;;;;;;5134368;28;20453;-55
2021/03/28 14:35:29;;;;;;;6.70;2.27;;;;;;;;;;5119639;28;20506;-59
2021/03/28 14:38:28;;;;;;;7.43;1.97;;;;;;;;;;5129884;28;20475;-50
2021/03/28 14:41:11;;;;;;;8.90;2.00;;;;;;;;;;5136545;28;20454;-52
2021/03/28 14:44:08;;;;;;;12.53;2.00;;;;;;;;;;5131207;28;20462;-58
2021/03/28 14:46:45;;;;;;;6.37;2.03;;;;;;;;;;5089698;28;20458;-59
2021/03/28 14:49:18;;;;;;;6.87;2.83;;;;;;;;;;5136761;28;20453;-51
2021/03/28 14:51:51;;;;;;;6.13;2.50;;;;;;;;;;5130989;28;20490;-53
2021/03/28 14:54:36;;;;;;;7.23;2.70;;;;;;;;;;5132975;28;20443;-56
2021/03/28 14:57:06;;;;;;;6.80;2.37;;;;;;;;;;5135848;28;20466;-55
2021/03/28 14:59:41;;;;;;;4.10;1.73;;;;;;;;;;5136446;28;20461;-53
2021/03/28 15:02:27;;;;;;;5.77;1.60;;;;;;;;;;5133997;27;20482;-59
2021/03/28 15:05:12;;;;;;;5.67;1.80;;;;;;;;;;5136637;28;20482;-54
2021/03/28 15:08:01;;;;;;;7.63;2.27;;;;;;;;;;5105853;28;20530;-55
2021/03/28 15:10:36;;;;;;;6.70;2.00;;;;;;;;;;5122156;28;20487;-57
2021/03/28 15:13:11;;;;;;;10.17;2.20;;;;;;;;;;5132335;28;20450;-59
2021/03/28 15:16:03;;;;;;;6.50;2.57;;;;;;;;;;5121782;28;20908;-56
2021/03/28 15:18:43;;;;;;;8.23;2.30;;;;;;;;;;5133429;28;20504;-52
2021/03/28 15:21:12;;;;;;;7.20;2.40;;;;;;;;;;5134821;27;20461;-57
2021/03/28 15:24:04;;;;;;;8.20;2.40;;;;;;;;;;5135443;28;20446;-51
2021/03/28 15:26:34;;;;;;;13.40;3.27;;;;;;;;;;5112540;28;20466;-54
2021/03/28 15:29:12;;;;;;;13.97;3.10;;;;;;;;;;5128685;28;20458;-56
2021/03/28 15:32:07;;;;;;;9.10;2.20;;;;;;;;;;5143063;27;20487;-52
2021/03/28 15:35:14;;;;;;;13.17;5.77;;;;;;;;;;5131094;28;20669;-53
2021/03/28 15:37:42;;;;;;;9.13;2.70;;;;;;;;;;5135983;28;20455;-55
2021/03/28 15:40:34;;;;;;;6.37;2.30;;;;;;;;;;5120304;28;20470;-57
2021/03/28 15:43:13;;;;;;;10.87;2.60;;;;;;;;;;5133202;28;20514;-54
2021/03/28 15:45:45;;;;;;;5.73;2.00;;;;;;;;;;5135313;28;20832;-56
2021/03/28 15:48:37;;;;;;;5.33;1.97;;;;;;;;;;5132522;28;20534;-60
2021/03/28 15:51:13;;;;;;;4.90;2.27;;;;;;;;;;5135499;28;20437;-56
2021/03/28 15:53:59;;;;;;;7.27;2.50;;;;;;;;;;5133055;28;20465;-53
2021/03/28 15:56:31;;;;;;;7.87;2.77;;;;;;;;;;5135283;28;20465;-59
2021/03/28 15:59:03;;;;;;;4.30;2.20;;;;;;;;;;5115852;28;20442;-56
2021/03/28 16:01:55;;;;;;;7.30;2.63;;;;;;;;;;5116547;28;20515;-58
2021/03/28 16:04:38;;;;;;;7.87;2.20;;;;;;;;;;5108404;28;20486;-60
2021/03/28 16:07:15;;;;;;;8.33;2.50;;;;;;;;;;5126109;28;20463;-59
2021/03/28 16:10:17;;;;;;;5.30;2.30;;;;;;;;;;5127987;28;20454;-50
2021/03/28 16:13:17;;;;;;;9.30;2.17;;;;;;;;;;5135251;28;20461;-58
2021/03/28 16:15:50;;;;;;;6.90;2.47;;;;;;;;;;5030325;28;20443;-54
2021/03/28 16:18:39;;;;;;;8.00;2.40;;;;;;;;;;5031769;28;20454;-57
2021/03/28 16:21:22;;;;;;;6.80;2.60;;;;;;;;;;5096280;28;20447;-53
2021/03/28 16:24:12;;;;;;;15.03;2.70;;;;;;;;;;5134680;28;20470;-54
2021/03/28 16:26:48;;;;;;;4.37;1.63;;;;;;;;;;5116231;28;20454;-54
2021/03/28 16:29:31;;;;;;;7.83;2.50;;;;;;;;;;5135716;28;20450;-55
2021/03/28 16:32:24;;;;;;;5.77;1.93;;;;;;;;;;5118659;28;20494;-57
2021/03/28 16:35:06;;;;;;;6.70;2.20;;;;;;;;;;5132255;27;20451;-54
2021/03/28 16:37:49;;;;;;;5.47;2.13;;;;;;;;;;5133607;28;20493;-60
2021/03/28 16:43:09;;;;;;;7.63;2.93;;;;;;;;;;5116454;28;20558;-53
2021/03/28 16:45:41;;;;;;;7.53;2.83;;;;;;;;;;5123787;27;20434;-54
2021/03/28 16:51:21;;;;;;;7.10;1.80;;;;;;;;;;5133465;27;20451;-47
2021/03/28 16:54:09;;;;;;;6.30;2.13;;;;;;;;;;5122531;28;20467;-60
2021/03/28 16:56:42;;;;;;;7.80;2.20;;;;;;;;;;5114549;28;20463;-52
2021/03/28 16:59:33;;;;;;;7.00;2.27;;;;;;;;;;5135446;27;20565;-59